Time;durP1;ratioP1;P1;durP2;ratioP2;P2;SDS_P1;SDS_P2;PMS_P1;PMS_P2;Temp;Humidity;BMP_temperature;BMP_pressure;BME280_temperature;BME280_humidity;BME280_pressure;Samples;Min_cycle;Max_cycle;Signal;HPM_P1;HPM_P2
2023/12/04 00:01:45;;;;;;;26.30;22.30;;;-2.40;99.90;;;;;;4876318;29;20278;-39
2023/12/04 00:04:10;;;;;;;30.20;23.48;;;-2.50;99.90;;;;;;4877476;29;20254;-39
2023/12/04 00:06:36;;;;;;;30.63;21.83;;;-2.50;99.90;;;;;;4871318;29;20199;-39
2023/12/04 00:09:02;;;;;;;27.47;23.30;;;-2.50;99.90;;;;;;4876260;29;20503;-39
2023/12/04 00:11:27;;;;;;;28.10;21.57;;;-2.50;99.90;;;;;;4875463;29;20219;-40
2023/12/04 00:13:53;;;;;;;27.83;21.97;;;-2.60;99.90;;;;;;4881432;29;20286;-40
2023/12/04 00:16:18;;;;;;;26.07;22.87;;;-2.60;99.90;;;;;;4877496;29;20199;-40
2023/12/04 00:18:44;;;;;;;25.27;22.20;;;-2.70;99.90;;;;;;4869685;29;20196;-39
2023/12/04 00:21:10;;;;;;;25.73;20.83;;;-2.70;99.90;;;;;;4867049;29;21026;-40
2023/12/04 00:23:35;;;;;;;23.97;20.90;;;-2.70;99.90;;;;;;4868703;29;20394;-39
2023/12/04 00:26:02;;;;;;;24.20;21.30;;;-2.80;99.90;;;;;;4873173;29;20192;-40
2023/12/04 00:28:28;;;;;;;28.38;22.42;;;-2.80;99.90;;;;;;4870744;29;20281;-38
2023/12/04 00:30:54;;;;;;;25.92;23.08;;;-2.80;99.90;;;;;;4867313;29;20227;-39
2023/12/04 00:33:20;;;;;;;25.70;21.20;;;-2.90;99.90;;;;;;4867476;29;20289;-53
2023/12/04 00:35:45;;;;;;;27.30;21.30;;;-2.90;99.90;;;;;;4868479;29;20191;-53
2023/12/04 00:38:11;;;;;;;24.60;21.97;;;-2.90;99.90;;;;;;4877780;29;20195;-52
2023/12/04 00:40:36;;;;;;;24.57;21.03;;;-2.90;99.90;;;;;;4882091;29;20274;-50
2023/12/04 00:43:02;;;;;;;22.17;20.00;;;-3.00;99.90;;;;;;4875292;29;20281;-47
2023/12/04 00:45:28;;;;;;;23.33;20.80;;;-3.00;99.90;;;;;;4857071;29;20259;-53
2023/12/04 00:47:53;;;;;;;23.13;20.83;;;-3.00;99.90;;;;;;4866381;29;20259;-52
2023/12/04 00:50:19;;;;;;;22.73;19.87;;;-3.00;99.90;;;;;;4870259;29;20195;-53
2023/12/04 00:52:44;;;;;;;20.87;18.67;;;-3.00;99.90;;;;;;4872406;29;20204;-56
2023/12/04 00:55:10;;;;;;;23.77;20.20;;;-3.00;99.90;;;;;;4866793;29;20626;-53
2023/12/04 00:57:36;;;;;;;23.27;20.30;;;-3.00;99.90;;;;;;4870119;29;20207;-53
2023/12/04 01:00:02;;;;;;;23.87;21.27;;;-3.00;99.90;;;;;;4873972;29;20954;-52
2023/12/04 01:02:28;;;;;;;22.05;19.67;;;-3.00;99.90;;;;;;4872877;29;20278;-49
2023/12/04 01:04:53;;;;;;;20.57;18.50;;;-3.00;99.90;;;;;;4859575;29;20295;-54
2023/12/04 01:07:19;;;;;;;18.90;16.97;;;-3.00;99.90;;;;;;4871771;29;20210;-54
2023/12/04 01:09:44;;;;;;;19.70;17.30;;;-3.00;99.90;;;;;;4869966;29;20521;-39
2023/12/04 01:12:10;;;;;;;19.17;17.27;;;-3.00;99.90;;;;;;4866535;29;20652;-40
2023/12/04 01:14:38;;;;;;;18.63;16.70;;;-3.00;99.90;;;;;;4852205;29;20244;-40
2023/12/04 01:17:04;;;;;;;19.40;17.55;;;-3.00;99.90;;;;;;4871932;29;20188;-39
2023/12/04 01:19:29;;;;;;;18.87;16.77;;;-3.00;99.90;;;;;;4880726;29;20959;-41
2023/12/04 01:21:55;;;;;;;18.53;16.67;;;-3.00;99.90;;;;;;4876226;29;20206;-41
2023/12/04 01:24:21;;;;;;;23.40;17.70;;;-3.00;99.90;;;;;;4876942;29;20223;-40
2023/12/04 01:26:47;;;;;;;18.95;17.00;;;-3.00;99.90;;;;;;4884141;29;20226;-40
2023/12/04 01:29:12;;;;;;;19.17;17.30;;;-3.00;99.90;;;;;;4888446;29;20184;-40
2023/12/04 01:31:38;;;;;;;20.50;18.30;;;-3.00;99.90;;;;;;4887316;29;20222;-40
2023/12/04 01:34:03;;;;;;;19.87;17.90;;;-3.10;99.90;;;;;;4887680;29;20203;-40
2023/12/04 01:36:29;;;;;;;19.10;17.43;;;-3.10;99.90;;;;;;4888274;29;20312;-40
2023/12/04 01:38:55;;;;;;;18.57;16.80;;;-3.00;99.90;;;;;;4887848;29;20187;-40
2023/12/04 01:41:21;;;;;;;18.30;16.50;;;-3.10;99.90;;;;;;4888127;29;20222;-40
2023/12/04 01:43:46;;;;;;;18.85;16.85;;;-3.20;99.90;;;;;;4870746;29;20215;-40
2023/12/04 01:46:15;;;;;;;21.53;18.97;;;-3.20;99.90;;;;;;4886962;29;20194;-40
2023/12/04 01:48:41;;;;;;;21.70;19.13;;;-3.20;99.90;;;;;;4888274;29;20186;-40
2023/12/04 01:51:09;;;;;;;20.17;18.20;;;-3.30;99.90;;;;;;4887358;29;20646;-39
2023/12/04 01:53:38;;;;;;;21.67;18.23;;;-3.30;99.90;;;;;;4887789;29;20442;-40
2023/12/04 01:56:04;;;;;;;20.50;18.08;;;-3.40;99.90;;;;;;4887601;29;21208;-40
2023/12/04 01:58:29;;;;;;;20.30;16.67;;;-3.40;99.90;;;;;;4886750;29;20194;-40
2023/12/04 02:00:55;;;;;;;20.53;16.80;;;-3.40;99.90;;;;;;4887711;29;20199;-55
2023/12/04 02:03:21;;;;;;;21.30;18.40;;;-3.40;99.90;;;;;;4887832;29;20195;-54
2023/12/04 02:05:47;;;;;;;25.10;19.00;;;-3.40;99.90;;;;;;4887562;29;20659;-54
2023/12/04 02:08:14;;;;;;;19.85;17.80;;;-3.40;99.90;;;;;;4887105;29;20183;-50
2023/12/04 02:10:39;;;;;;;20.15;17.42;;;-3.50;99.90;;;;;;4887107;29;20215;-55
2023/12/04 02:13:06;;;;;;;19.50;17.30;;;-3.60;99.90;;;;;;4887658;29;20598;-54
2023/12/04 02:15:32;;;;;;;19.73;17.27;;;-3.60;99.90;;;;;;4886454;29;20191;-51
2023/12/04 02:17:58;;;;;;;18.60;16.83;;;-3.70;99.90;;;;;;4887482;29;20231;-51
2023/12/04 02:20:34;;;;;;;18.92;17.02;;;-3.70;99.90;;;;;;4887038;29;20315;-53
2023/12/04 02:23:01;;;;;;;19.73;17.90;;;-3.70;99.90;;;;;;4887298;29;20635;-41
2023/12/04 02:25:27;;;;;;;19.00;17.05;;;-3.70;99.90;;;;;;4887174;29;20213;-41
2023/12/04 02:27:55;;;;;;;19.35;17.40;;;-3.70;99.90;;;;;;4885849;29;20572;-40
2023/12/04 02:30:24;;;;;;;23.90;18.75;;;-3.70;99.90;;;;;;4887036;29;20316;-41
2023/12/04 02:32:51;;;;;;;19.88;17.77;;;-3.80;99.90;;;;;;4887273;29;20278;-39
2023/12/04 02:35:22;;;;;;;21.75;18.67;;;-3.80;99.90;;;;;;4887092;29;20201;-39
2023/12/04 02:37:49;;;;;;;23.35;18.83;;;-3.80;99.90;;;;;;4886351;29;20190;-39
2023/12/04 02:40:15;;;;;;;24.25;19.95;;;-3.80;99.90;;;;;;4887007;29;21347;-39
2023/12/04 02:42:40;;;;;;;22.65;20.20;;;-3.80;99.90;;;;;;4886104;29;20183;-39
2023/12/04 02:45:07;;;;;;;21.90;18.87;;;-3.80;99.90;;;;;;4885717;29;20219;-39
2023/12/04 02:47:32;;;;;;;21.60;19.23;;;-3.80;99.90;;;;;;4887144;29;20202;-39
2023/12/04 02:49:58;;;;;;;22.57;20.13;;;-3.80;99.90;;;;;;4886434;29;20191;-39
2023/12/04 02:52:24;;;;;;;24.80;20.07;;;-3.80;99.90;;;;;;4886059;29;20195;-39
2023/12/04 02:54:49;;;;;;;25.40;19.20;;;-3.80;99.90;;;;;;4886821;29;20490;-40
2023/12/04 02:57:15;;;;;;;24.90;19.00;;;-3.70;99.90;;;;;;4886693;29;20665;-39
2023/12/04 02:59:41;;;;;;;23.53;19.40;;;-3.70;99.90;;;;;;4869544;29;20195;-40
2023/12/04 03:02:06;;;;;;;23.57;19.67;;;-3.70;99.90;;;;;;4886362;29;20510;-40
2023/12/04 03:04:33;;;;;;;23.90;20.30;;;-3.70;99.90;;;;;;4886755;29;20231;-40
2023/12/04 03:06:58;;;;;;;22.92;20.63;;;-3.70;99.90;;;;;;4886260;29;20663;-40
2023/12/04 03:09:24;;;;;;;23.63;20.30;;;-3.60;99.90;;;;;;4886604;29;20274;-40
2023/12/04 03:11:49;;;;;;;24.17;18.90;;;-3.60;99.90;;;;;;4886340;29;20821;-41
2023/12/04 03:14:15;;;;;;;22.50;18.73;;;-3.60;99.90;;;;;;4885556;29;20198;-41
2023/12/04 03:16:41;;;;;;;28.93;21.37;;;-3.60;99.90;;;;;;4886287;29;20187;-40
2023/12/04 03:19:06;;;;;;;21.63;19.43;;;-3.60;99.90;;;;;;4885869;29;20202;-40
2023/12/04 03:21:32;;;;;;;26.90;20.03;;;-3.50;99.90;;;;;;4885945;29;20187;-40
2023/12/04 03:23:58;;;;;;;22.00;18.90;;;-3.50;99.90;;;;;;4885935;29;20563;-40
2023/12/04 03:26:23;;;;;;;25.97;19.73;;;-3.50;99.90;;;;;;4885990;29;20662;-40
2023/12/04 03:28:49;;;;;;;23.67;18.97;;;-3.40;99.90;;;;;;4864241;29;20199;-40
2023/12/04 03:31:15;;;;;;;25.57;20.03;;;-3.40;99.90;;;;;;4869501;29;20228;-40
2023/12/04 03:33:40;;;;;;;21.70;17.80;;;-3.30;99.90;;;;;;4883727;29;20191;-39
2023/12/04 03:36:07;;;;;;;25.47;21.13;;;-3.20;99.90;;;;;;4872462;29;20685;-39
2023/12/04 03:38:32;;;;;;;22.48;19.45;;;-3.10;99.90;;;;;;4862433;29;20199;-41
2023/12/04 03:40:58;;;;;;;27.83;21.13;;;-3.00;99.90;;;;;;4856697;29;20184;-40
2023/12/04 03:43:24;;;;;;;23.30;18.97;;;-3.00;99.90;;;;;;4872773;29;20188;-40
2023/12/04 03:45:49;;;;;;;25.87;19.70;;;-2.90;99.90;;;;;;4876782;29;20186;-39
2023/12/04 03:48:15;;;;;;;22.00;17.50;;;-2.90;99.90;;;;;;4875321;29;20279;-40
2023/12/04 03:50:40;;;;;;;23.13;20.83;;;-2.80;99.90;;;;;;4881929;29;20191;-40
2023/12/04 03:53:06;;;;;;;24.83;19.90;;;-2.80;99.90;;;;;;4874520;29;20816;-38
2023/12/04 03:55:32;;;;;;;21.83;19.63;;;-2.80;97.60;;;;;;4872489;29;20187;-40
2023/12/04 03:57:59;;;;;;;23.50;20.17;;;-2.80;95.20;;;;;;4873835;29;20195;-40
2023/12/04 04:00:24;;;;;;;23.77;19.75;;;-2.70;92.20;;;;;;4870935;29;20191;-39
2023/12/04 04:02:50;;;;;;;25.57;20.97;;;-2.60;79.00;;;;;;4872432;29;20255;-41
2023/12/04 04:05:15;;;;;;;22.70;17.70;;;-2.60;71.80;;;;;;4878737;29;20297;-40
2023/12/04 04:07:41;;;;;;;20.67;17.53;;;-2.60;72.20;;;;;;4877077;29;20279;-42
2023/12/04 04:10:08;;;;;;;24.80;20.77;;;-2.60;61.40;;;;;;4880094;29;21304;-40
2023/12/04 04:12:34;;;;;;;20.90;18.90;;;-2.60;58.20;;;;;;4884630;29;20298;-41
2023/12/04 04:15:00;;;;;;;27.07;19.60;;;-2.60;56.60;;;;;;4876632;29;20266;-40
2023/12/04 04:17:26;;;;;;;26.03;20.87;;;-2.60;52.60;;;;;;4882258;29;20459;-40
2023/12/04 04:19:52;;;;;;;22.57;19.13;;;-2.60;51.30;;;;;;4867913;29;20196;-40
2023/12/04 04:22:19;;;;;;;20.55;17.95;;;-2.50;50.80;;;;;;4882267;29;20494;-40
2023/12/04 04:24:44;;;;;;;23.75;19.35;;;-2.50;50.80;;;;;;4858311;29;20236;-39
2023/12/04 04:27:11;;;;;;;24.40;21.45;;;-2.50;48.70;;;;;;4875989;29;20271;-39
2023/12/04 04:29:37;;;;;;;21.57;19.23;;;-2.50;46.90;;;;;;4882249;29;20211;-39
2023/12/04 04:32:03;;;;;;;28.70;20.90;;;-2.50;42.60;;;;;;4877678;29;20232;-39
2023/12/04 04:34:28;;;;;;;21.50;18.40;;;-2.50;40.90;;;;;;4883304;29;20200;-39
2023/12/04 04:36:54;;;;;;;21.60;19.40;;;-2.50;43.20;;;;;;4872031;29;20192;-40
2023/12/04 04:39:20;;;;;;;21.17;19.17;;;-2.50;39.10;;;;;;4880505;29;20195;-40
2023/12/04 04:41:45;;;;;;;22.50;19.23;;;-2.50;36.50;;;;;;4879606;29;20909;-40
2023/12/04 04:44:11;;;;;;;21.73;19.03;;;-2.50;32.70;;;;;;4879846;29;21127;-39
2023/12/04 04:46:36;;;;;;;22.20;19.80;;;-2.60;32.30;;;;;;4877229;29;20187;-39
2023/12/04 04:49:06;;;;;;;20.17;18.27;;;-2.60;34.90;;;;;;4875271;29;20279;-40
2023/12/04 04:51:32;;;;;;;23.15;19.90;;;-2.50;34.80;;;;;;4878019;29;20179;-41
2023/12/04 04:53:57;;;;;;;21.05;18.65;;;-2.60;32.10;;;;;;4871243;29;20218;-40
2023/12/04 04:56:23;;;;;;;22.30;19.80;;;-2.50;29.50;;;;;;4881431;29;20227;-40
2023/12/04 04:58:49;;;;;;;21.67;17.53;;;-2.50;26.40;;;;;;4882753;29;20671;-41
2023/12/04 05:01:14;;;;;;;23.73;17.97;;;-2.50;28.40;;;;;;4877531;29;20195;-40
2023/12/04 05:03:40;;;;;;;21.03;18.60;;;-2.50;25.90;;;;;;4877239;29;21062;-40
2023/12/04 05:06:06;;;;;;;18.87;16.30;;;-2.50;24.50;;;;;;4879700;29;20527;-40
2023/12/04 05:08:32;;;;;;;20.80;17.90;;;-2.50;23.50;;;;;;4875798;29;20180;-40
2023/12/04 05:10:57;;;;;;;20.17;18.13;;;-2.50;18.50;;;;;;4876124;29;20196;-40
2023/12/04 05:13:23;;;;;;;19.07;17.17;;;-2.50;22.70;;;;;;4886997;29;20253;-40
2023/12/04 05:15:48;;;;;;;18.87;16.97;;;-2.40;17.40;;;;;;4882548;29;20994;-40
2023/12/04 05:18:14;;;;;;;19.70;17.93;;;-2.40;19.10;;;;;;4871635;29;20195;-40
2023/12/04 05:20:40;;;;;;;19.73;17.37;;;-2.40;19.20;;;;;;4877166;29;20187;-40
2023/12/04 05:23:05;;;;;;;18.50;16.90;;;-2.40;16.10;;;;;;4872346;29;20307;-40
2023/12/04 05:25:31;;;;;;;18.27;15.63;;;-2.30;13.50;;;;;;4876036;29;20216;-40
2023/12/04 05:27:57;;;;;;;20.57;18.40;;;-2.30;17.10;;;;;;4883280;29;20238;-41
2023/12/04 05:30:22;;;;;;;19.67;17.17;;;-2.20;12.90;;;;;;4888295;29;20195;-40
2023/12/04 05:32:48;;;;;;;19.57;17.60;;;-2.20;9.60;;;;;;4888695;29;20231;-40
2023/12/04 05:35:15;;;;;;;21.60;18.23;;;-2.10;12.20;;;;;;4888198;29;20207;-40
2023/12/04 05:37:40;;;;;;;19.15;17.30;;;-2.00;28.30;;;;;;4888962;29;20195;-40
2023/12/04 05:40:07;;;;;;;19.40;17.33;;;-2.00;25.60;;;;;;4888049;29;20813;-40
2023/12/04 05:42:33;;;;;;;19.60;17.73;;;-1.90;21.90;;;;;;4887652;29;20206;-40
2023/12/04 05:45:00;;;;;;;19.10;17.13;;;-1.90;9.50;;;;;;4889008;29;20303;-40
2023/12/04 05:47:26;;;;;;;19.63;17.50;;;-1.80;1.00;;;;;;4888045;29;20303;-39
2023/12/04 05:49:51;;;;;;;20.73;17.37;;;-1.80;1.00;;;;;;4888093;29;20223;-40
2023/12/04 05:52:17;;;;;;;18.87;16.67;;;-1.90;1.00;;;;;;4887954;29;20663;-39
2023/12/04 05:54:43;;;;;;;19.07;17.17;;;-1.80;1.00;;;;;;4887626;29;20202;-41
2023/12/04 05:57:08;;;;;;;18.33;16.40;;;-1.80;1.00;;;;;;4887876;29;20260;-40
2023/12/04 05:59:34;;;;;;;22.50;17.90;;;-1.80;1.00;;;;;;4887521;29;20274;-41
2023/12/04 06:02:01;;;;;;;19.60;17.60;;;-1.80;1.00;;;;;;4884601;29;20654;-40
2023/12/04 06:04:27;;;;;;;18.00;16.25;;;-1.80;1.00;;;;;;4882836;29;21120;-38
2023/12/04 06:06:52;;;;;;;19.43;17.20;;;-1.80;1.00;;;;;;4887476;29;20328;-39
2023/12/04 06:09:18;;;;;;;15.73;14.27;;;-1.80;1.00;;;;;;4887645;29;20188;-40
2023/12/04 06:11:44;;;;;;;18.23;16.30;;;-1.90;1.00;;;;;;4887261;29;20232;-40
2023/12/04 06:14:10;;;;;;;21.23;17.37;;;-1.90;1.00;;;;;;4887599;29;20739;-40
2023/12/04 06:16:37;;;;;;;16.88;15.32;;;-1.90;1.00;;;;;;4887969;29;20449;-40
2023/12/04 06:19:04;;;;;;;20.20;17.90;;;-1.90;1.00;;;;;;4887609;29;20219;-40
2023/12/04 06:21:30;;;;;;;18.88;17.00;;;-1.90;1.00;;;;;;4887265;29;20193;-40
2023/12/04 06:23:56;;;;;;;19.05;16.88;;;-2.00;1.00;;;;;;4887898;29;20208;-40
2023/12/04 06:26:22;;;;;;;18.42;16.55;;;-2.00;1.00;;;;;;4887009;29;20185;-40
2023/12/04 06:28:48;;;;;;;20.60;18.38;;;-2.00;1.00;;;;;;4876772;29;20188;-40
2023/12/04 06:31:14;;;;;;;16.47;14.80;;;-2.00;1.00;;;;;;4868098;29;20203;-40
2023/12/04 06:33:40;;;;;;;21.60;18.20;;;-2.00;1.00;;;;;;4875789;29;20515;-40
2023/12/04 06:36:07;;;;;;;18.40;16.70;;;-2.10;1.00;;;;;;4872886;29;20858;-40
2023/12/04 06:38:35;;;;;;;18.45;16.58;;;-2.10;1.00;;;;;;4869910;29;20469;-40
2023/12/04 06:41:01;;;;;;;18.45;16.75;;;-2.10;1.00;;;;;;4877342;29;20675;-40
2023/12/04 06:43:27;;;;;;;18.77;16.90;;;-2.10;1.00;;;;;;4873512;29;20199;-40
2023/12/04 06:45:56;;;;;;;17.17;15.20;;;-2.10;1.00;;;;;;4875724;29;20187;-40
2023/12/04 06:48:22;;;;;;;18.52;16.80;;;-2.10;1.00;;;;;;4874307;29;20195;-57
2023/12/04 06:50:48;;;;;;;18.73;16.80;;;-2.10;1.00;;;;;;4885756;29;20184;-54
2023/12/04 06:53:14;;;;;;;17.47;15.60;;;-2.10;1.00;;;;;;4882177;29;20188;-40
2023/12/04 06:55:39;;;;;;;16.57;15.00;;;-2.10;1.00;;;;;;4882426;29;20188;-40
2023/12/04 06:58:05;;;;;;;16.80;15.20;;;-2.00;1.00;;;;;;4867710;29;20279;-40
2023/12/04 07:00:30;;;;;;;17.30;15.57;;;-2.00;1.00;;;;;;4868080;29;20298;-40
2023/12/04 07:02:56;;;;;;;17.40;15.60;;;-2.00;1.00;;;;;;4869272;29;20191;-40
2023/12/04 07:05:22;;;;;;;18.07;16.23;;;-2.00;1.00;;;;;;4872864;29;20211;-40
2023/12/04 07:07:48;;;;;;;18.47;16.40;;;-2.00;1.00;;;;;;4870415;29;20652;-41
2023/12/04 07:10:14;;;;;;;17.60;15.80;;;-2.00;1.00;;;;;;4868330;29;20188;-40
2023/12/04 07:12:41;;;;;;;17.90;16.17;;;-2.00;1.00;;;;;;4870792;29;20781;-40
2023/12/04 07:15:07;;;;;;;16.10;14.60;;;-2.00;1.00;;;;;;4871420;29;20290;-39
2023/12/04 07:17:33;;;;;;;17.02;15.23;;;-2.00;1.00;;;;;;4879967;29;20192;-40
2023/12/04 07:19:58;;;;;;;17.90;16.20;;;-2.10;1.00;;;;;;4872056;29;20239;-40
2023/12/04 07:22:24;;;;;;;16.90;15.20;;;-2.00;1.00;;;;;;4876818;29;20189;-40
2023/12/04 07:24:49;;;;;;;18.43;16.70;;;-2.10;1.00;;;;;;4852782;29;20242;-40
2023/12/04 07:27:16;;;;;;;17.30;15.77;;;-2.10;1.00;;;;;;4877726;29;20237;-39
2023/12/04 07:29:41;;;;;;;16.75;15.10;;;-2.10;1.00;;;;;;4885615;29;20191;-39
2023/12/04 07:32:07;;;;;;;18.53;16.23;;;-2.10;1.00;;;;;;4868302;29;20190;-50
2023/12/04 07:34:33;;;;;;;17.07;15.50;;;-2.10;1.00;;;;;;4883782;29;20207;-55
2023/12/04 07:37:00;;;;;;;19.70;17.67;;;-2.10;1.00;;;;;;4885260;29;20196;-54
2023/12/04 07:39:26;;;;;;;16.13;14.75;;;-2.10;1.00;;;;;;4868009;29;21089;-49
2023/12/04 07:41:52;;;;;;;19.35;16.40;;;-2.00;1.00;;;;;;4867708;29;20346;-54
2023/12/04 07:44:18;;;;;;;20.05;18.00;;;-2.00;1.00;;;;;;4885093;29;20540;-40
2023/12/04 07:46:43;;;;;;;17.20;15.40;;;-1.90;1.00;;;;;;4885058;29;20239;-40
2023/12/04 07:49:09;;;;;;;18.70;16.73;;;-1.90;1.00;;;;;;4885134;29;20711;-40
2023/12/04 07:51:35;;;;;;;18.60;16.63;;;-1.90;1.00;;;;;;4884956;29;20184;-39
2023/12/04 07:54:01;;;;;;;17.17;15.67;;;-1.80;1.00;;;;;;4885208;29;20196;-51
2023/12/04 07:56:26;;;;;;;17.97;16.20;;;-1.80;1.00;;;;;;4866940;29;20275;-53
2023/12/04 07:58:52;;;;;;;18.30;16.53;;;-1.70;1.00;;;;;;4884737;29;20423;-51
2023/12/04 08:01:18;;;;;;;18.80;16.83;;;-1.50;1.00;;;;;;4884907;29;20191;-55
2023/12/04 08:03:43;;;;;;;18.53;16.80;;;-1.50;1.00;;;;;;4884658;29;20239;-54
2023/12/04 08:06:09;;;;;;;17.67;15.97;;;-1.50;1.00;;;;;;4880994;29;20189;-55
2023/12/04 08:08:35;;;;;;;17.20;15.70;;;-1.40;1.00;;;;;;4882803;29;20220;-54
2023/12/04 08:11:00;;;;;;;18.33;16.63;;;-1.40;1.00;;;;;;4882009;29;20638;-52
2023/12/04 08:13:26;;;;;;;19.00;17.10;;;-1.40;1.00;;;;;;4882796;29;20593;-54
2023/12/04 08:15:51;;;;;;;19.03;17.23;;;-1.30;1.00;;;;;;4885689;29;20258;-53
2023/12/04 08:18:17;;;;;;;18.40;16.50;;;-1.20;1.00;;;;;;4885703;29;20198;-56
2023/12/04 08:20:43;;;;;;;18.20;16.20;;;-1.10;1.00;;;;;;4885409;29;20344;-53
2023/12/04 08:23:09;;;;;;;17.43;15.70;;;-1.00;1.00;;;;;;4884836;29;20941;-52
2023/12/04 08:25:37;;;;;;;18.27;16.27;;;-1.00;1.00;;;;;;4887338;29;20214;-56
2023/12/04 08:28:03;;;;;;;18.00;16.30;;;-0.80;1.00;;;;;;4884977;29;20254;-53
2023/12/04 08:30:29;;;;;;;19.63;17.63;;;-0.60;1.00;;;;;;4888294;29;20203;-57
2023/12/04 08:32:54;;;;;;;19.10;17.20;;;-0.50;99.90;;;;;;4888047;29;20293;-55
2023/12/04 08:35:20;;;;;;;17.53;16.03;;;-0.40;99.90;;;;;;4888226;29;20209;-55
2023/12/04 08:37:46;;;;;;;19.00;17.40;;;-0.20;99.90;;;;;;4888474;29;20243;-53
2023/12/04 08:40:11;;;;;;;20.60;18.43;;;0.10;99.90;;;;;;4888451;29;20894;-51
2023/12/04 08:42:38;;;;;;;20.07;18.10;;;0.50;66.20;;;;;;4888685;29;20838;-53
2023/12/04 08:45:05;;;;;;;21.40;19.50;;;0.80;99.90;;;;;;4887219;29;20609;-54
2023/12/04 08:47:31;;;;;;;21.20;19.45;;;1.10;99.90;;;;;;4871350;29;20199;-53
2023/12/04 08:49:57;;;;;;;21.23;19.37;;;1.30;26.80;;;;;;4888359;29;20562;-53
2023/12/04 08:52:22;;;;;;;19.57;17.83;;;1.40;99.90;;;;;;4888149;29;20945;-53
2023/12/04 08:54:48;;;;;;;20.50;18.60;;;1.40;1.00;;;;;;4886494;29;20195;-55
2023/12/04 08:57:14;;;;;;;20.20;18.30;;;1.30;1.00;;;;;;4886968;29;21041;-55
2023/12/04 08:59:39;;;;;;;19.63;17.73;;;1.40;1.00;;;;;;4887601;29;20208;-55
2023/12/04 09:02:05;;;;;;;18.20;16.50;;;1.30;1.00;;;;;;4888053;29;20211;-54
2023/12/04 09:04:31;;;;;;;19.02;17.17;;;1.50;1.00;;;;;;4885376;29;20674;-55
2023/12/04 09:06:57;;;;;;;18.88;17.20;;;1.70;1.00;;;;;;4887390;29;20230;-54
2023/12/04 09:09:23;;;;;;;17.80;16.20;;;1.50;99.90;;;;;;4888010;29;20201;-54
2023/12/04 09:11:48;;;;;;;17.27;15.57;;;1.30;1.00;;;;;;4888379;29;20263;-55
2023/12/04 09:14:14;;;;;;;17.83;16.13;;;1.20;1.00;;;;;;4887867;29;20238;-54
2023/12/04 09:16:40;;;;;;;17.23;15.70;;;1.20;1.00;;;;;;4887890;29;20286;-54
2023/12/04 09:19:06;;;;;;;17.30;15.80;;;1.10;1.00;;;;;;4888129;29;20256;-54
2023/12/04 09:21:31;;;;;;;16.77;15.47;;;1.10;1.00;;;;;;4887565;29;20559;-55
2023/12/04 09:23:57;;;;;;;17.07;15.57;;;0.70;99.90;;;;;;4888168;29;20226;-55
2023/12/04 09:26:23;;;;;;;17.33;15.83;;;0.60;99.90;;;;;;4884399;29;20638;-51
2023/12/04 09:28:48;;;;;;;18.00;16.50;;;0.70;99.90;;;;;;4887646;29;20194;-51
2023/12/04 09:31:14;;;;;;;17.47;16.07;;;0.70;99.90;;;;;;4888214;29;20866;-52
2023/12/04 09:33:40;;;;;;;17.47;15.87;;;0.70;99.90;;;;;;4887340;29;20191;-56
2023/12/04 09:36:06;;;;;;;17.30;15.70;;;0.60;89.00;;;;;;4869644;29;20203;-53
2023/12/04 09:38:31;;;;;;;17.70;16.07;;;0.70;99.90;;;;;;4885588;29;20192;-54
2023/12/04 09:41:01;;;;;;;17.20;15.60;;;0.90;74.00;;;;;;4886891;29;20853;-40
2023/12/04 09:43:28;;;;;;;17.60;16.10;;;1.30;18.40;;;;;;4887132;29;21069;-40
2023/12/04 09:45:54;;;;;;;17.75;16.20;;;1.50;1.00;;;;;;4885326;29;20191;-40
2023/12/04 09:48:20;;;;;;;16.90;15.50;;;1.70;1.00;;;;;;4886549;29;20871;-40
2023/12/04 09:50:48;;;;;;;18.13;16.35;;;2.00;1.00;;;;;;4887272;29;20199;-40
2023/12/04 09:53:13;;;;;;;19.42;17.63;;;2.40;1.00;;;;;;4887512;29;20943;-40
2023/12/04 09:55:40;;;;;;;17.23;15.83;;;2.60;1.00;;;;;;4884943;29;20209;-40
2023/12/04 09:58:06;;;;;;;18.30;16.65;;;2.80;1.00;;;;;;4886953;29;20427;-40
2023/12/04 10:00:32;;;;;;;18.53;16.90;;;2.90;1.00;;;;;;4886851;29;20238;-40
2023/12/04 10:02:59;;;;;;;17.53;16.03;;;2.90;1.00;;;;;;4886985;29;20192;-40
2023/12/04 10:05:25;;;;;;;18.00;16.50;;;2.80;1.00;;;;;;4884772;29;20853;-42
2023/12/04 10:07:51;;;;;;;17.50;15.93;;;2.40;1.00;;;;;;4886797;29;20202;-39
2023/12/04 10:10:16;;;;;;;19.03;17.10;;;2.30;1.00;;;;;;4886861;29;20219;-40
2023/12/04 10:12:43;;;;;;;18.53;17.07;;;2.40;1.00;;;;;;4886954;29;21029;-40
2023/12/04 10:15:10;;;;;;;17.23;15.52;;;2.50;1.00;;;;;;4887055;29;20200;-40
2023/12/04 10:17:40;;;;;;;18.45;16.65;;;2.30;1.00;;;;;;4886835;29;20229;-40
2023/12/04 10:20:17;;;;;;;18.25;16.58;;;2.20;1.00;;;;;;4869370;29;20205;-40
2023/12/04 10:22:59;;;;;;;17.98;16.48;;;2.10;1.00;;;;;;4886458;29;20218;-40
2023/12/04 10:25:29;;;;;;;19.05;17.35;;;1.80;1.00;;;;;;4884646;29;20216;-40
2023/12/04 10:28:11;;;;;;;18.23;16.40;;;1.90;1.00;;;;;;4885406;29;20302;-42
2023/12/04 10:30:37;;;;;;;17.13;15.52;;;1.70;1.00;;;;;;4886070;29;20192;-55
2023/12/04 10:33:05;;;;;;;18.27;16.57;;;1.80;1.00;;;;;;4886403;29;20203;-52
2023/12/04 10:35:38;;;;;;;17.00;15.30;;;1.80;1.00;;;;;;4886658;29;20263;-54
2023/12/04 10:38:06;;;;;;;17.65;15.85;;;1.70;1.00;;;;;;4868989;29;20204;-56
2023/12/04 10:40:33;;;;;;;17.85;16.05;;;1.80;1.00;;;;;;4885856;29;20200;-55
2023/12/04 10:43:16;;;;;;;18.35;16.52;;;1.70;1.00;;;;;;4866903;29;20651;-54
2023/12/04 10:45:43;;;;;;;18.10;16.10;;;1.90;1.00;;;;;;4885935;29;20250;-52
2023/12/04 10:48:10;;;;;;;16.23;14.73;;;1.80;1.00;;;;;;4868060;29;20216;-53
2023/12/04 10:50:40;;;;;;;16.48;15.20;;;1.70;1.00;;;;;;4883752;29;20282;-51
2023/12/04 10:53:07;;;;;;;16.73;15.20;;;1.60;1.00;;;;;;4885916;29;20311;-56
2023/12/04 10:55:33;;;;;;;16.20;14.68;;;1.50;1.00;;;;;;4885822;29;20211;-56
2023/12/04 10:58:05;;;;;;;18.02;16.52;;;1.60;1.00;;;;;;4885010;29;20195;-51
2023/12/04 11:00:33;;;;;;;16.65;15.15;;;1.20;1.00;;;;;;4886150;29;20209;-52
2023/12/04 11:03:09;;;;;;;16.20;14.90;;;1.30;1.00;;;;;;4885674;29;20283;-55
2023/12/04 11:05:39;;;;;;;16.50;15.18;;;1.20;1.00;;;;;;4883479;29;20399;-54
2023/12/04 11:08:08;;;;;;;16.75;15.35;;;1.30;1.00;;;;;;4885357;29;20196;-54
2023/12/04 11:10:42;;;;;;;15.93;14.43;;;1.40;1.00;;;;;;4885602;29;20218;-40
2023/12/04 11:13:31;;;;;;;15.43;14.13;;;1.50;1.00;;;;;;4883031;29;20226;-56
2023/12/04 11:16:01;;;;;;;17.02;15.55;;;1.70;1.00;;;;;;4883335;29;20663;-56
2023/12/04 11:18:31;;;;;;;18.00;16.30;;;1.80;1.00;;;;;;4885644;29;20191;-40
2023/12/04 11:21:11;;;;;;;18.13;16.40;;;1.60;1.00;;;;;;5037161;28;20684;-40
2023/12/04 11:23:37;;;;;;;17.48;15.90;;;1.60;1.00;;;;;;5052359;28;20556;-39
2023/12/04 11:26:05;;;;;;;17.08;15.55;;;1.70;1.00;;;;;;5037122;28;20195;-40
2023/12/04 11:28:32;;;;;;;17.10;15.60;;;1.60;1.00;;;;;;5033873;28;20190;-40
2023/12/04 11:30:59;;;;;;;17.27;15.73;;;1.60;1.00;;;;;;5036608;28;20273;-46
2023/12/04 11:33:24;;;;;;;17.95;16.40;;;1.70;1.00;;;;;;5036381;28;20187;-39
2023/12/04 11:35:51;;;;;;;17.57;15.77;;;1.70;1.00;;;;;;5037105;28;20200;-39
2023/12/04 11:38:19;;;;;;;19.42;17.60;;;1.70;1.00;;;;;;5036619;28;20521;-53
2023/12/04 11:40:46;;;;;;;17.58;15.98;;;1.70;1.00;;;;;;5037137;28;20940;-56
2023/12/04 11:43:25;;;;;;;17.15;15.55;;;1.40;1.00;;;;;;5036462;28;20187;-51
2023/12/04 11:45:51;;;;;;;17.55;16.02;;;1.30;1.00;;;;;;5036611;28;20267;-53
2023/12/04 11:48:16;;;;;;;16.57;15.23;;;1.20;1.00;;;;;;5036787;28;20249;-53
2023/12/04 11:50:45;;;;;;;18.17;16.37;;;1.30;1.00;;;;;;5034635;28;20685;-48
2023/12/04 11:53:14;;;;;;;18.55;16.85;;;1.10;1.00;;;;;;5035614;28;20199;-50
2023/12/04 11:55:41;;;;;;;17.38;15.65;;;1.00;1.00;;;;;;5034029;28;20194;-50
2023/12/04 11:58:11;;;;;;;18.10;16.40;;;0.80;1.00;;;;;;5034297;28;20194;-40
2023/12/04 12:00:37;;;;;;;18.73;16.75;;;0.90;1.00;;;;;;5034176;28;20206;-40
2023/12/04 12:03:06;;;;;;;18.88;16.10;;;0.80;1.00;;;;;;5033587;28;20175;-39
2023/12/04 12:05:33;;;;;;;18.60;16.77;;;0.80;23.50;;;;;;5032896;28;20258;-40
2023/12/04 12:08:02;;;;;;;17.70;16.10;;;0.80;40.30;;;;;;5032810;28;20185;-40
2023/12/04 12:10:29;;;;;;;18.33;16.52;;;0.90;99.90;;;;;;5032741;28;20503;-40
2023/12/04 12:12:56;;;;;;;17.90;16.20;;;0.90;99.90;;;;;;5031606;28;20908;-40
2023/12/04 12:15:22;;;;;;;18.88;16.95;;;1.00;99.90;;;;;;5033077;28;20190;-40
2023/12/04 12:17:49;;;;;;;17.70;15.90;;;1.00;99.90;;;;;;5048166;28;20189;-51
2023/12/04 12:20:15;;;;;;;17.73;16.20;;;1.00;99.90;;;;;;5034607;28;20712;-52
2023/12/04 12:22:43;;;;;;;18.33;16.55;;;0.90;99.90;;;;;;5033896;28;20185;-54
2023/12/04 12:25:10;;;;;;;18.15;16.30;;;0.90;99.90;;;;;;5034494;28;20192;-52
2023/12/04 12:27:37;;;;;;;18.83;16.95;;;0.90;99.90;;;;;;5032564;28;20216;-54
2023/12/04 12:30:04;;;;;;;18.52;16.88;;;0.90;99.90;;;;;;5034726;28;20618;-54